createdAt,value
2023-07-27T00:02:06.698Z,4.15
2023-07-27T00:04:33.632Z,3.78
2023-07-27T00:07:00.938Z,3.95
2023-07-27T00:09:27.834Z,3.60
2023-07-27T00:11:57.045Z,4.00
2023-07-27T00:14:23.978Z,3.83
2023-07-27T00:16:50.994Z,3.50
2023-07-27T00:19:17.986Z,3.70
2023-07-27T00:21:44.888Z,3.33
2023-07-27T00:24:11.841Z,3.85
2023-07-27T00:26:38.797Z,3.97
2023-07-27T00:29:05.877Z,3.83
2023-07-27T00:31:32.869Z,3.58
2023-07-27T00:33:59.870Z,3.80
2023-07-27T00:36:27.678Z,3.58
2023-07-27T00:38:54.730Z,4.05
2023-07-27T00:41:21.755Z,4.13
2023-07-27T00:43:48.716Z,3.53
2023-07-27T00:46:16.313Z,3.63
2023-07-27T00:48:43.714Z,3.22
2023-07-27T00:51:11.944Z,3.60
2023-07-27T00:53:39.028Z,3.60
2023-07-27T00:56:06.501Z,3.25
2023-07-27T00:58:34.136Z,3.33
2023-07-27T01:01:04.627Z,3.38
2023-07-27T01:03:31.736Z,2.78
2023-07-27T01:05:58.788Z,3.25
2023-07-27T01:08:25.924Z,3.30
2023-07-27T01:11:08.348Z,3.33
2023-07-27T01:14:01.650Z,3.40
2023-07-27T01:19:30.258Z,3.33
2023-07-27T01:22:18.187Z,3.92
2023-07-27T01:25:12.565Z,4.57
2023-07-27T01:28:50.775Z,7.07
2023-07-27T01:31:24.474Z,7.13
2023-07-27T01:34:04.489Z,7.10
2023-07-27T01:36:39.241Z,6.72
2023-07-27T01:39:09.986Z,6.43
2023-07-27T01:41:38.731Z,5.68
2023-07-27T01:44:06.709Z,5.63
2023-07-27T01:46:35.466Z,5.43
2023-07-27T01:49:03.934Z,5.70
2023-07-27T01:51:32.617Z,5.57
2023-07-27T01:54:00.423Z,5.78
2023-07-27T01:56:29.657Z,5.30
2023-07-27T01:58:58.002Z,5.63
2023-07-27T02:01:25.079Z,6.05
2023-07-27T02:03:52.349Z,6.22
2023-07-27T02:06:19.305Z,6.45
2023-07-27T02:08:46.312Z,8.20
2023-07-27T02:11:17.606Z,9.20
2023-07-27T02:13:50.028Z,9.88
2023-07-27T02:16:37.151Z,11.75
2023-07-27T02:19:05.988Z,13.45
2023-07-27T02:21:34.060Z,12.80
2023-07-27T02:24:01.544Z,13.82
2023-07-27T02:26:29.310Z,15.43
2023-07-27T02:28:57.782Z,16.77
2023-07-27T02:31:25.628Z,17.48
2023-07-27T02:33:52.682Z,17.17
2023-07-27T02:36:19.661Z,15.77
2023-07-27T02:38:46.693Z,16.02
2023-07-27T02:41:16.693Z,17.08
2023-07-27T02:43:43.779Z,15.90
2023-07-27T02:46:10.794Z,13.85
2023-07-27T02:48:37.963Z,12.60
2023-07-27T02:51:05.852Z,13.38
2023-07-27T02:53:33.872Z,12.27
2023-07-27T02:56:03.716Z,12.85
2023-07-27T02:58:31.023Z,14.65
2023-07-27T03:01:06.072Z,15.55
2023-07-27T03:03:33.916Z,13.88
2023-07-27T03:06:04.788Z,14.15
2023-07-27T03:08:32.797Z,13.55
2023-07-27T03:11:04.848Z,13.35
2023-07-27T03:13:33.528Z,14.35
2023-07-27T03:16:05.245Z,14.10
2023-07-27T03:18:32.874Z,13.90
2023-07-27T03:21:04.872Z,14.43
2023-07-27T03:23:34.937Z,14.30
2023-07-27T03:26:02.300Z,13.70
2023-07-27T03:28:29.260Z,13.10
2023-07-27T03:30:56.240Z,13.88
2023-07-27T03:33:23.517Z,13.93
2023-07-27T03:35:50.504Z,13.30
2023-07-27T03:38:17.552Z,14.32
2023-07-27T03:40:46.107Z,13.40
2023-07-27T03:43:13.016Z,13.63
2023-07-27T03:45:39.988Z,13.43
2023-07-27T03:48:07.183Z,14.18
2023-07-27T03:50:34.160Z,15.35
2023-07-27T03:53:01.109Z,14.18
2023-07-27T03:55:28.042Z,14.20
2023-07-27T03:57:55.019Z,13.88
2023-07-27T04:00:21.989Z,13.95
2023-07-27T04:02:48.985Z,14.05
2023-07-27T04:05:21.300Z,13.48
2023-07-27T04:07:50.817Z,13.35
2023-07-27T04:10:20.447Z,12.40
2023-07-27T04:12:47.459Z,12.63
2023-07-27T04:15:14.522Z,11.90
2023-07-27T04:17:41.505Z,12.98
2023-07-27T04:20:09.578Z,12.20
2023-07-27T04:22:36.672Z,12.02
2023-07-27T04:25:04.062Z,10.60
2023-07-27T04:27:31.046Z,11.35
2023-07-27T04:29:58.125Z,10.70
2023-07-27T04:32:25.123Z,9.82
2023-07-27T04:34:52.763Z,9.73
2023-07-27T04:37:19.800Z,10.15
2023-07-27T04:39:47.022Z,9.65
2023-07-27T04:42:14.039Z,9.45
2023-07-27T04:44:44.137Z,9.32
2023-07-27T04:47:11.106Z,9.63
2023-07-27T04:49:40.617Z,8.75
2023-07-27T04:52:10.865Z,7.93
2023-07-27T04:54:38.078Z,7.50
2023-07-27T04:57:05.217Z,8.73
2023-07-27T04:59:32.271Z,8.93
2023-07-27T05:01:59.357Z,8.77
2023-07-27T05:04:26.509Z,8.57
2023-07-27T05:06:53.496Z,8.55
2023-07-27T05:09:20.597Z,8.32
2023-07-27T05:11:47.659Z,8.30
2023-07-27T05:14:14.634Z,8.05
2023-07-27T05:16:41.653Z,8.18
2023-07-27T05:19:08.713Z,8.50
2023-07-27T05:21:35.698Z,8.23
2023-07-27T05:24:02.761Z,7.55
2023-07-27T05:26:29.840Z,7.55
2023-07-27T05:28:59.969Z,7.88
2023-07-27T05:31:27.457Z,7.30
2023-07-27T05:33:54.476Z,6.65
2023-07-27T05:36:21.465Z,6.80
2023-07-27T05:38:48.775Z,7.63
2023-07-27T05:41:15.732Z,7.57
2023-07-27T05:43:42.686Z,8.30
2023-07-27T05:46:09.637Z,9.27
2023-07-27T05:48:36.653Z,8.57
2023-07-27T05:51:04.555Z,9.40
2023-07-27T05:53:31.531Z,8.70
2023-07-27T05:55:58.579Z,8.68
2023-07-27T05:58:26.584Z,9.15
2023-07-27T06:01:04.677Z,9.88
2023-07-27T06:03:32.996Z,10.48
2023-07-27T06:06:00.523Z,10.63
2023-07-27T06:08:28.927Z,11.10
2023-07-27T06:11:28.781Z,10.68
2023-07-27T06:13:56.011Z,11.00
2023-07-27T06:16:23.427Z,10.85
2023-07-27T06:18:50.548Z,8.82
2023-07-27T06:21:17.438Z,7.38
2023-07-27T06:23:44.442Z,7.43
2023-07-27T06:26:11.707Z,7.45
2023-07-27T06:28:38.807Z,7.20
2023-07-27T06:31:05.851Z,6.35
2023-07-27T06:33:32.978Z,6.10
2023-07-27T06:36:00.094Z,5.35
2023-07-27T06:38:27.438Z,5.82
2023-07-27T06:40:54.464Z,4.82
2023-07-27T06:43:21.450Z,5.20
2023-07-27T06:45:48.469Z,5.20
2023-07-27T06:48:16.292Z,5.25
2023-07-27T06:50:43.450Z,4.88
2023-07-27T06:53:10.393Z,3.90
2023-07-27T06:55:37.430Z,4.22
2023-07-27T06:58:04.644Z,3.30
2023-07-27T07:00:33.260Z,3.50
2023-07-27T07:03:00.790Z,3.67
2023-07-27T07:05:28.031Z,3.50
2023-07-27T07:07:54.975Z,3.97
2023-07-27T07:10:22.028Z,4.03
2023-07-27T07:12:49.081Z,4.32
2023-07-27T07:15:27.934Z,5.00
2023-07-27T07:17:55.086Z,5.10
2023-07-27T07:20:22.318Z,4.20
2023-07-27T07:22:49.288Z,3.92
2023-07-27T07:25:17.285Z,4.57
2023-07-27T07:27:44.341Z,4.10
2023-07-27T07:30:12.758Z,3.90
2023-07-27T07:32:39.810Z,3.95
2023-07-27T07:35:08.959Z,4.05
2023-07-27T07:37:37.347Z,3.88
2023-07-27T07:40:05.432Z,4.30
2023-07-27T07:42:33.420Z,4.60
2023-07-27T07:45:00.442Z,4.10
2023-07-27T07:47:29.038Z,4.03
2023-07-27T07:49:56.218Z,3.92
2023-07-27T07:52:23.716Z,4.15
2023-07-27T07:54:50.682Z,4.00
2023-07-27T07:57:21.032Z,4.15
2023-07-27T07:59:48.330Z,4.70
2023-07-27T08:02:15.859Z,4.93
2023-07-27T08:04:42.822Z,4.20
2023-07-27T08:07:09.770Z,4.43
2023-07-27T08:09:37.376Z,4.22
2023-07-27T08:12:04.660Z,4.68
2023-07-27T08:14:32.444Z,4.05
2023-07-27T08:16:59.528Z,4.18
2023-07-27T08:19:27.069Z,4.53
2023-07-27T08:21:53.974Z,4.80
2023-07-27T08:24:22.846Z,5.28
2023-07-27T08:26:50.064Z,5.70
2023-07-27T08:29:17.122Z,6.10
2023-07-27T08:31:44.070Z,5.78
2023-07-27T08:34:14.061Z,6.65
2023-07-27T08:37:48.749Z,5.72
2023-07-27T08:39:40.294Z,5.25
2023-07-27T08:42:14.118Z,4.38
2023-07-27T08:44:45.229Z,4.85
2023-07-27T08:47:15.592Z,5.50
2023-07-27T08:49:49.909Z,5.25
2023-07-27T08:52:17.298Z,5.05
2023-07-27T08:54:44.513Z,4.65
2023-07-27T08:57:15.609Z,5.43
2023-07-27T08:59:43.397Z,5.38
2023-07-27T09:02:10.545Z,5.70
2023-07-27T09:04:37.663Z,5.80
2023-07-27T09:07:08.156Z,5.97
2023-07-27T09:09:35.717Z,5.07
2023-07-27T09:12:08.095Z,5.22
2023-07-27T09:14:54.589Z,4.85
2023-07-27T09:17:26.554Z,4.85
2023-07-27T09:19:56.329Z,4.75
2023-07-27T09:22:24.512Z,5.07
2023-07-27T09:24:51.555Z,4.68
2023-07-27T09:27:18.598Z,5.65
2023-07-27T09:29:45.578Z,4.90
2023-07-27T09:32:12.745Z,5.10
2023-07-27T09:34:39.808Z,5.00
2023-07-27T09:37:07.170Z,4.88
2023-07-27T09:39:36.652Z,4.47
2023-07-27T09:42:05.104Z,4.85
2023-07-27T09:44:32.107Z,5.13
2023-07-27T09:46:59.220Z,4.13
2023-07-27T09:49:26.934Z,4.28
2023-07-27T09:51:55.116Z,4.15
2023-07-27T09:54:23.992Z,4.20
2023-07-27T09:56:52.443Z,3.95
2023-07-27T09:59:20.888Z,4.00
2023-07-27T10:01:47.829Z,3.83
2023-07-27T10:04:14.947Z,3.92
2023-07-27T10:06:42.087Z,3.88
2023-07-27T10:09:20.153Z,3.80
2023-07-27T10:11:59.033Z,4.15
2023-07-27T10:14:28.044Z,3.42
2023-07-27T10:17:09.854Z,3.80
2023-07-27T10:19:44.146Z,3.70
2023-07-27T10:22:19.041Z,3.70
2023-07-27T10:24:55.389Z,3.50
2023-07-27T10:27:28.374Z,3.55
2023-07-27T10:30:12.705Z,3.03
2023-07-27T10:32:39.833Z,2.78
2023-07-27T10:35:10.216Z,3.13
2023-07-27T10:37:56.317Z,3.00
2023-07-27T10:40:27.713Z,3.20
2023-07-27T10:42:59.525Z,3.08
2023-07-27T10:45:28.139Z,2.72
2023-07-27T10:47:58.828Z,2.40
2023-07-27T10:50:26.066Z,2.20
2023-07-27T10:52:54.380Z,2.22
2023-07-27T10:55:22.716Z,2.40
2023-07-27T10:57:51.518Z,2.22
2023-07-27T11:00:18.536Z,2.05
2023-07-27T11:02:46.207Z,1.75
2023-07-27T11:05:14.587Z,1.45
2023-07-27T11:07:47.634Z,1.60
2023-07-27T11:10:19.127Z,1.52
2023-07-27T11:12:49.693Z,2.00
2023-07-27T11:15:31.001Z,1.60
2023-07-27T11:18:02.938Z,1.40
2023-07-27T11:20:30.458Z,1.33
2023-07-27T11:23:00.688Z,1.63
2023-07-27T11:25:35.987Z,1.65
2023-07-27T11:28:05.033Z,1.60
2023-07-27T11:30:37.178Z,1.30
2023-07-27T11:33:06.439Z,1.40
2023-07-27T11:35:34.030Z,1.30
2023-07-27T11:38:02.286Z,1.10
2023-07-27T11:40:29.952Z,1.00
2023-07-27T11:42:57.139Z,0.95
2023-07-27T11:45:25.675Z,1.23
2023-07-27T11:47:54.412Z,1.00
2023-07-27T11:50:22.297Z,0.95
2023-07-27T11:52:58.907Z,1.20
2023-07-27T11:55:26.503Z,0.88
2023-07-27T11:57:53.531Z,1.20
2023-07-27T12:00:20.758Z,1.00
2023-07-27T12:02:52.225Z,1.05
2023-07-27T12:05:23.940Z,1.50
2023-07-27T12:15:38.138Z,2.33
2023-07-27T12:18:07.620Z,2.67
2023-07-27T12:25:39.458Z,3.50
2023-07-27T12:30:43.056Z,4.97
2023-07-27T12:33:11.918Z,4.63
2023-07-27T12:35:39.304Z,5.40
2023-07-27T12:43:07.218Z,5.82
2023-07-27T12:45:34.227Z,5.38
2023-07-27T12:48:01.222Z,6.25
2023-07-27T12:50:28.329Z,6.07
2023-07-27T12:52:55.331Z,5.32
2023-07-27T12:55:22.296Z,6.10
2023-07-27T12:57:49.418Z,5.70
2023-07-27T13:00:17.477Z,5.28
2023-07-27T13:02:44.944Z,4.70
2023-07-27T13:05:16.740Z,4.70
2023-07-27T13:07:46.499Z,4.97
2023-07-27T13:10:19.730Z,4.68
2023-07-27T13:12:46.891Z,4.65
2023-07-27T13:15:14.011Z,4.80
2023-07-27T13:17:41.921Z,4.57
2023-07-27T13:20:10.777Z,4.72
2023-07-27T13:22:38.774Z,4.55
2023-07-27T13:25:07.101Z,5.15
2023-07-27T13:27:34.391Z,6.03
2023-07-27T13:30:05.766Z,5.20
2023-07-27T13:32:33.435Z,5.30
2023-07-27T13:35:01.531Z,5.88
2023-07-27T13:37:30.731Z,5.60
2023-07-27T13:39:58.094Z,5.63
2023-07-27T13:42:25.993Z,6.00
2023-07-27T13:44:53.452Z,5.75
2023-07-27T13:47:20.436Z,5.32
2023-07-27T13:49:47.520Z,4.88
2023-07-27T13:52:15.397Z,4.70
2023-07-27T13:54:42.432Z,4.75
2023-07-27T13:57:09.577Z,5.05
2023-07-27T13:59:36.717Z,4.13
2023-07-27T14:02:03.859Z,4.50
2023-07-27T14:04:30.913Z,4.97
2023-07-27T14:06:57.921Z,4.40
2023-07-27T14:09:27.682Z,4.70
2023-07-27T14:11:54.614Z,4.80
2023-07-27T14:14:21.631Z,4.60
2023-07-27T14:16:48.523Z,5.07
2023-07-27T14:19:15.539Z,4.78
2023-07-27T14:21:42.596Z,5.32
2023-07-27T14:24:09.720Z,5.55
2023-07-27T14:26:36.733Z,5.50
2023-07-27T14:29:04.444Z,5.10
2023-07-27T14:31:33.102Z,5.55
2023-07-27T14:34:04.166Z,5.20
2023-07-27T14:36:31.329Z,5.10
2023-07-27T14:41:28.411Z,3.90
2023-07-27T14:43:55.372Z,4.15
2023-07-27T14:46:22.382Z,3.75
2023-07-27T14:48:50.196Z,3.60
2023-07-27T14:51:17.901Z,3.20
2023-07-27T14:53:46.426Z,3.65
2023-07-27T14:56:13.395Z,3.15
2023-07-27T14:58:47.325Z,2.80
2023-07-27T15:01:15.102Z,2.90
2023-07-27T15:03:51.957Z,2.10
2023-07-27T15:06:20.330Z,2.05
2023-07-27T15:08:47.619Z,2.10
2023-07-27T15:13:46.899Z,2.42
2023-07-27T15:16:17.654Z,2.88
2023-07-27T15:18:46.213Z,2.53
2023-07-27T15:21:14.464Z,2.80
2023-07-27T15:23:41.472Z,2.97
2023-07-27T15:26:09.333Z,2.50
2023-07-27T15:28:37.436Z,2.85
2023-07-27T15:31:08.253Z,3.05
2023-07-27T15:33:36.085Z,3.30
2023-07-27T15:36:03.257Z,3.00
2023-07-27T15:38:30.813Z,3.30
2023-07-27T15:40:58.324Z,2.42
2023-07-27T15:43:25.647Z,2.58
2023-07-27T15:45:52.730Z,2.95
2023-07-27T15:48:22.167Z,3.22
2023-07-27T15:50:49.249Z,3.40
2023-07-27T15:53:16.394Z,3.22
2023-07-27T15:55:43.818Z,3.47
2023-07-27T15:58:11.429Z,3.53
2023-07-27T16:00:42.308Z,3.53
2023-07-27T16:03:09.583Z,3.40
2023-07-27T16:05:39.685Z,3.30
2023-07-27T16:08:07.900Z,3.83
2023-07-27T16:10:34.863Z,3.55
2023-07-27T16:13:05.128Z,3.00
2023-07-27T16:15:32.166Z,2.80
2023-07-27T16:17:59.602Z,2.90
2023-07-27T16:20:26.711Z,2.90
2023-07-27T16:22:53.610Z,2.90
2023-07-27T16:25:23.732Z,2.75
2023-07-27T16:27:52.853Z,2.28
2023-07-27T16:30:20.084Z,2.60
2023-07-27T16:32:47.144Z,2.40
2023-07-27T16:35:14.241Z,2.20
2023-07-27T16:37:41.197Z,2.60
2023-07-27T16:40:08.944Z,2.83
2023-07-27T16:42:35.900Z,2.80
2023-07-27T16:45:02.892Z,2.30
2023-07-27T16:47:30.156Z,2.17
2023-07-27T16:49:57.128Z,2.10
2023-07-27T16:52:24.210Z,2.33
2023-07-27T16:54:51.192Z,1.92
2023-07-27T16:57:18.261Z,2.20
2023-07-27T16:59:45.236Z,2.30
2023-07-27T17:02:14.206Z,2.00
2023-07-27T17:04:41.204Z,2.03
2023-07-27T17:07:08.183Z,1.95
2023-07-27T17:09:39.532Z,2.75
2023-07-27T17:12:08.304Z,2.30
2023-07-27T17:14:39.521Z,2.55
2023-07-27T17:17:06.708Z,2.67
2023-07-27T17:19:33.647Z,2.45
2023-07-27T17:22:00.815Z,2.15
2023-07-27T17:24:27.745Z,2.30
2023-07-27T17:26:54.724Z,2.50
2023-07-27T17:29:21.740Z,2.30
2023-07-27T17:31:48.764Z,2.38
2023-07-27T17:34:15.933Z,2.33
2023-07-27T17:36:42.949Z,2.63
2023-07-27T17:39:10.055Z,2.60
2023-07-27T17:41:37.642Z,2.42
2023-07-27T17:44:05.239Z,2.58
2023-07-27T17:46:33.219Z,2.80
2023-07-27T17:49:00.293Z,2.45
2023-07-27T17:51:27.573Z,2.45
2023-07-27T17:53:54.516Z,2.58
2023-07-27T17:56:21.491Z,2.50
2023-07-27T17:58:48.501Z,2.20
2023-07-27T18:01:15.520Z,2.20
2023-07-27T18:03:43.149Z,2.40
2023-07-27T18:06:11.281Z,2.50
2023-07-27T18:08:39.141Z,2.40
2023-07-27T18:11:13.884Z,2.60
2023-07-27T18:13:42.728Z,2.80
2023-07-27T18:16:11.792Z,3.10
2023-07-27T18:18:40.466Z,3.10
2023-07-27T18:21:16.826Z,3.10
2023-07-27T18:23:47.482Z,3.03
2023-07-27T18:26:21.269Z,3.20
2023-07-27T18:28:49.703Z,4.10
2023-07-27T18:31:21.410Z,3.92
2023-07-27T18:33:51.476Z,4.10
2023-07-27T18:36:19.264Z,3.90
2023-07-27T18:38:47.546Z,4.18
2023-07-27T18:41:16.018Z,4.18
2023-07-27T18:43:43.846Z,4.82
2023-07-27T18:46:11.052Z,4.95
2023-07-27T18:48:38.134Z,4.13
2023-07-27T18:51:05.325Z,3.60
2023-07-27T18:53:32.588Z,4.00
2023-07-27T18:55:59.616Z,4.57
2023-07-27T18:58:26.538Z,4.13
2023-07-27T19:00:53.672Z,4.57
2023-07-27T19:03:20.706Z,4.70
2023-07-27T19:05:47.774Z,4.97
2023-07-27T19:08:17.368Z,5.43
2023-07-27T19:10:44.518Z,5.05
2023-07-27T19:13:11.495Z,5.03
2023-07-27T19:15:46.516Z,4.90
2023-07-27T19:18:13.513Z,5.57
2023-07-27T19:20:40.495Z,6.03
2023-07-27T19:23:07.717Z,5.25
2023-07-27T19:25:42.242Z,5.60
2023-07-27T19:28:17.912Z,6.13
2023-07-27T19:30:46.833Z,7.35
2023-07-27T19:33:15.441Z,8.52
2023-07-27T19:35:43.958Z,10.88
2023-07-27T19:38:11.740Z,10.98
2023-07-27T19:40:40.704Z,12.43
2023-07-27T19:43:07.683Z,12.90
2023-07-27T19:45:34.672Z,13.48
2023-07-27T19:48:02.135Z,14.93
2023-07-27T19:50:29.102Z,14.07
2023-07-27T19:52:55.999Z,13.77
2023-07-27T19:55:24.077Z,13.57
2023-07-27T19:57:51.143Z,15.05
2023-07-27T20:00:18.369Z,15.35
2023-07-27T20:02:48.192Z,15.73
2023-07-27T20:05:15.446Z,16.00
2023-07-27T20:07:42.377Z,15.77
2023-07-27T20:10:09.663Z,15.80
2023-07-27T20:12:36.648Z,14.65
2023-07-27T20:15:04.201Z,14.48
2023-07-27T20:17:31.141Z,14.45
2023-07-27T20:19:58.689Z,14.35
2023-07-27T20:22:25.628Z,13.13
2023-07-27T20:24:52.606Z,13.52
2023-07-27T20:27:22.485Z,11.95
2023-07-27T20:29:49.410Z,11.55
2023-07-27T20:32:16.345Z,11.68
2023-07-27T20:34:43.328Z,10.75
2023-07-27T20:37:10.227Z,10.40
2023-07-27T20:39:37.413Z,11.27
2023-07-27T20:42:05.645Z,11.27
2023-07-27T20:44:32.592Z,12.05
2023-07-27T20:46:59.716Z,11.68
2023-07-27T20:49:27.833Z,11.68
2023-07-27T20:51:54.829Z,11.02
2023-07-27T20:54:21.736Z,11.27
2023-07-27T20:56:48.706Z,10.73
2023-07-27T20:59:15.672Z,10.18
2023-07-27T21:01:42.612Z,10.18
2023-07-27T21:04:09.584Z,10.77
2023-07-27T21:06:37.688Z,10.80
2023-07-27T21:09:04.850Z,10.65
2023-07-27T21:11:31.872Z,10.73
2023-07-27T21:13:58.915Z,11.30
2023-07-27T21:16:25.932Z,12.18
2023-07-27T21:18:53.013Z,12.40
2023-07-27T21:21:21.458Z,12.48
2023-07-27T21:23:53.577Z,13.00
2023-07-27T21:26:20.942Z,13.85
2023-07-27T21:28:48.175Z,13.77
2023-07-27T21:31:15.571Z,13.63
2023-07-27T21:33:43.348Z,13.93
2023-07-27T21:36:10.748Z,13.50
2023-07-27T21:38:37.696Z,13.80
2023-07-27T21:41:04.992Z,13.88
2023-07-27T21:43:32.735Z,13.30
2023-07-27T21:45:59.860Z,13.90
2023-07-27T21:48:27.153Z,13.68
2023-07-27T21:50:54.492Z,13.63
2023-07-27T21:53:21.923Z,14.05
2023-07-27T21:55:48.978Z,13.98
2023-07-27T21:58:16.118Z,13.82
2023-07-27T22:00:43.466Z,13.75
2023-07-27T22:03:12.817Z,14.68
2023-07-27T22:05:39.926Z,13.77
2023-07-27T22:08:07.432Z,13.23
2023-07-27T22:10:34.495Z,15.50
2023-07-27T22:13:03.552Z,15.52
2023-07-27T22:15:30.767Z,13.85
2023-07-27T22:17:58.005Z,14.38
2023-07-27T22:20:25.140Z,14.40
2023-07-27T22:22:52.225Z,13.85
2023-07-27T22:25:19.589Z,14.52
2023-07-27T22:27:46.715Z,14.30
2023-07-27T22:30:14.005Z,13.43
2023-07-27T22:32:42.142Z,14.18
2023-07-27T22:35:10.158Z,13.85
2023-07-27T22:37:37.212Z,13.55
2023-07-27T22:40:04.555Z,13.93
2023-07-27T22:42:31.851Z,14.77
2023-07-27T22:44:58.969Z,13.73
2023-07-27T22:47:25.954Z,13.82
2023-07-27T22:49:54.300Z,13.40
2023-07-27T22:52:21.541Z,13.38
2023-07-27T22:54:48.670Z,13.88
2023-07-27T22:57:15.769Z,13.65
2023-07-27T22:59:42.770Z,13.80
2023-07-27T23:02:09.680Z,13.07
2023-07-27T23:04:36.714Z,12.77
2023-07-27T23:07:03.803Z,12.68
2023-07-27T23:09:30.844Z,13.15
2023-07-27T23:11:57.823Z,13.90
2023-07-27T23:14:24.845Z,13.80
2023-07-27T23:16:51.864Z,12.98
2023-07-27T23:19:18.907Z,12.98
2023-07-27T23:21:45.848Z,12.27
2023-07-27T23:24:12.954Z,12.38
2023-07-27T23:26:39.889Z,13.30
2023-07-27T23:29:07.840Z,12.55
2023-07-27T23:31:34.890Z,13.52
2023-07-27T23:34:01.849Z,13.10
2023-07-27T23:36:28.817Z,13.38
2023-07-27T23:38:55.870Z,12.15
2023-07-27T23:41:24.592Z,11.98
2023-07-27T23:43:51.500Z,12.45
2023-07-27T23:46:18.404Z,11.20
2023-07-27T23:48:45.344Z,11.35
2023-07-27T23:51:12.236Z,10.20
2023-07-27T23:53:39.203Z,9.38
2023-07-27T23:56:06.938Z,9.65
2023-07-27T23:58:33.908Z,9.98
